Aviation Digital Data Service (ADDS)

Output produced by TAFs form (0643 UTC 02 September 2014)
found at http://aviationweather.gov/adds/tafs/
 
KROW 020539Z 0206/0306 26006KT P6SM SKC 
     FM020900 36006KT P6SM SKC 
     FM021300 04006KT P6SM FEW050 
     FM021900 15007KT P6SM FEW090